Time;durP1;ratioP1;P1;durP2;ratioP2;P2;SDS_P1;SDS_P2;PMS_P1;PMS_P2;Temp;Humidity;BMP_temperature;BMP_pressure;BME280_temperature;BME280_humidity;BME280_pressure;Samples;Min_cycle;Max_cycle;Signal;HPM_P1;HPM_P2
2022/04/13 00:00:31;;;;;;;3.40;3.10;;;10.80;97.50;;;;;;5021429;28;20562;-68
2022/04/13 00:03:00;;;;;;;5.20;2.70;;;10.80;97.60;;;;;;5021474;28;20469;-69
2022/04/13 00:05:30;;;;;;;9.10;3.33;;;10.80;97.60;;;;;;5021070;28;20550;-69
2022/04/13 00:07:57;;;;;;;3.90;3.47;;;10.80;97.60;;;;;;5020943;28;20506;-69
2022/04/13 00:10:25;;;;;;;4.22;3.30;;;10.80;97.70;;;;;;5021206;28;20471;-67
2022/04/13 00:12:53;;;;;;;3.47;3.17;;;10.80;97.70;;;;;;5021057;28;20198;-69
2022/04/13 00:15:22;;;;;;;4.77;4.23;;;10.80;97.80;;;;;;5020957;28;20948;-68
2022/04/13 00:17:49;;;;;;;3.47;3.10;;;10.70;97.60;;;;;;5020641;28;20903;-68
2022/04/13 00:20:17;;;;;;;3.60;3.30;;;10.80;97.70;;;;;;5020709;28;20445;-69
2022/04/13 00:22:46;;;;;;;3.67;3.37;;;10.80;97.70;;;;;;5020932;28;21073;-69
2022/04/13 00:25:14;;;;;;;3.83;3.53;;;10.80;97.80;;;;;;5020513;28;20842;-68
2022/04/13 00:27:42;;;;;;;5.37;4.10;;;10.70;97.70;;;;;;5020561;28;20637;-68
2022/04/13 00:30:11;;;;;;;4.05;3.70;;;10.70;97.80;;;;;;5021162;28;20630;-68
2022/04/13 00:32:39;;;;;;;4.30;4.00;;;10.70;98.00;;;;;;5020708;28;20485;-69
2022/04/13 00:35:07;;;;;;;3.00;2.80;;;10.70;97.80;;;;;;5020585;28;20552;-69
2022/04/13 00:37:38;;;;;;;5.93;3.70;;;10.70;97.90;;;;;;5020450;28;20438;-68
2022/04/13 00:40:09;;;;;;;4.33;3.77;;;10.70;98.00;;;;;;5020706;28;20634;-68
2022/04/13 00:42:37;;;;;;;3.80;3.50;;;10.70;97.90;;;;;;5021288;28;20473;-68
2022/04/13 00:45:06;;;;;;;4.60;3.70;;;10.60;98.00;;;;;;5023136;28;20293;-69
2022/04/13 00:47:40;;;;;;;4.30;3.90;;;10.60;98.10;;;;;;5022027;28;20305;-69
2022/04/13 00:50:09;;;;;;;5.57;3.40;;;10.60;98.00;;;;;;5020664;28;20244;-68
2022/04/13 00:52:41;;;;;;;6.80;3.60;;;10.50;98.00;;;;;;5021296;28;20221;-70
2022/04/13 00:55:13;;;;;;;4.00;3.70;;;10.50;98.10;;;;;;5020249;28;20437;-70
2022/04/13 00:57:42;;;;;;;3.40;3.10;;;10.50;98.30;;;;;;5020558;28;20871;-70
2022/04/13 01:00:11;;;;;;;4.47;3.80;;;10.40;98.30;;;;;;5020391;28;20213;-67
2022/04/13 01:02:42;;;;;;;5.55;5.05;;;10.40;98.20;;;;;;5020461;28;20452;-69
2022/04/13 01:05:12;;;;;;;4.70;3.72;;;10.50;98.30;;;;;;5020179;28;20515;-69
2022/04/13 01:07:41;;;;;;;5.93;3.58;;;10.40;98.30;;;;;;5019942;28;20305;-69
2022/04/13 01:10:10;;;;;;;3.60;3.30;;;10.50;98.30;;;;;;5019970;28;20203;-69
2022/04/13 01:12:38;;;;;;;5.55;4.57;;;10.40;98.30;;;;;;5020254;28;20206;-69
2022/04/13 01:15:07;;;;;;;5.60;4.28;;;10.40;98.30;;;;;;5020173;28;20313;-71
2022/04/13 01:17:38;;;;;;;4.00;3.65;;;10.40;98.30;;;;;;5020097;28;20758;-72
2022/04/13 01:20:07;;;;;;;6.93;5.57;;;10.30;98.40;;;;;;5020056;28;20283;-70
2022/04/13 01:22:37;;;;;;;3.97;3.63;;;10.30;98.50;;;;;;5019825;28;20437;-70
2022/04/13 01:25:06;;;;;;;4.72;3.95;;;10.30;98.50;;;;;;5019819;28;20640;-71
2022/04/13 01:27:34;;;;;;;4.20;3.90;;;10.20;98.50;;;;;;5019205;28;20249;-71
2022/04/13 01:30:02;;;;;;;7.57;4.65;;;10.20;98.60;;;;;;5019490;28;20206;-72
2022/04/13 01:32:30;;;;;;;5.05;4.47;;;10.20;98.70;;;;;;5019690;28;20372;-72
2022/04/13 01:34:58;;;;;;;4.25;3.85;;;10.10;98.70;;;;;;5019628;28;20210;-72
2022/04/13 01:37:25;;;;;;;4.53;4.10;;;10.10;98.80;;;;;;5019261;28;20208;-72
2022/04/13 01:39:55;;;;;;;4.97;3.80;;;10.10;98.80;;;;;;5019419;28;20693;-73
2022/04/13 01:42:23;;;;;;;4.30;3.80;;;10.00;98.80;;;;;;5019507;28;20467;-72
2022/04/13 01:44:49;;;;;;;4.10;3.60;;;10.00;98.80;;;;;;5019836;28;20615;-70
2022/04/13 01:47:16;;;;;;;6.65;4.07;;;10.00;98.90;;;;;;5019571;28;20225;-70
2022/04/13 01:49:44;;;;;;;4.45;4.05;;;10.10;98.90;;;;;;5019993;28;20293;-71
2022/04/13 01:52:12;;;;;;;5.40;4.60;;;10.10;99.00;;;;;;5019945;28;20801;-71
2022/04/13 01:54:40;;;;;;;4.70;4.03;;;10.10;99.00;;;;;;5020372;28;20267;-70
2022/04/13 01:57:10;;;;;;;5.05;4.35;;;10.10;99.10;;;;;;5026720;28;20210;-70
2022/04/13 01:59:37;;;;;;;4.70;4.30;;;10.10;99.00;;;;;;5033780;28;20263;-70
2022/04/13 02:02:06;;;;;;;4.93;4.47;;;10.10;99.10;;;;;;5020449;28;20218;-69
2022/04/13 02:04:34;;;;;;;7.70;4.80;;;10.20;99.10;;;;;;5019800;28;20202;-70
2022/04/13 02:07:02;;;;;;;7.20;4.68;;;10.20;99.20;;;;;;5019054;28;20614;-70
2022/04/13 02:09:30;;;;;;;4.80;4.43;;;10.20;99.20;;;;;;5017950;28;20748;-70
2022/04/13 02:11:58;;;;;;;8.27;4.63;;;10.20;99.10;;;;;;5018823;28;20241;-69
2022/04/13 02:14:27;;;;;;;5.40;4.82;;;10.20;99.20;;;;;;5018803;28;20305;-69
2022/04/13 02:16:55;;;;;;;6.28;4.28;;;10.30;99.20;;;;;;5019187;28;20233;-69
2022/04/13 02:19:23;;;;;;;6.30;4.57;;;10.20;99.20;;;;;;5018775;28;20658;-73
2022/04/13 02:21:51;;;;;;;6.70;3.92;;;10.20;99.20;;;;;;5019371;28;20348;-72
2022/04/13 02:24:18;;;;;;;6.07;4.10;;;10.30;99.20;;;;;;5019374;28;20198;-74
2022/04/13 02:26:46;;;;;;;8.77;5.25;;;10.30;99.30;;;;;;5018898;28;20224;-72
2022/04/13 02:29:14;;;;;;;5.00;4.47;;;10.30;99.20;;;;;;5018942;28;20432;-73
2022/04/13 02:31:43;;;;;;;5.65;4.53;;;10.30;99.10;;;;;;5018891;28;20640;-72
2022/04/13 02:34:11;;;;;;;5.05;4.05;;;10.30;99.20;;;;;;5020532;28;20209;-73
2022/04/13 02:36:39;;;;;;;5.97;4.70;;;10.30;99.10;;;;;;5020600;28;20206;-72
2022/04/13 02:39:07;;;;;;;6.35;4.70;;;10.30;99.20;;;;;;5019838;28;20221;-72
2022/04/13 02:41:34;;;;;;;6.60;5.25;;;10.20;99.20;;;;;;5019135;28;20456;-68
2022/04/13 02:44:03;;;;;;;5.80;4.95;;;10.20;99.30;;;;;;5019569;28;20212;-70
2022/04/13 02:46:31;;;;;;;5.82;4.78;;;10.20;99.40;;;;;;5019107;28;20356;-72
2022/04/13 02:49:00;;;;;;;5.88;4.88;;;10.10;99.40;;;;;;5023376;28;20305;-72
2022/04/13 02:51:28;;;;;;;5.15;4.45;;;10.10;99.50;;;;;;5025073;28;20348;-72
2022/04/13 02:53:56;;;;;;;4.50;4.10;;;10.10;99.50;;;;;;5032252;28;20240;-67
2022/04/13 02:56:24;;;;;;;6.43;4.70;;;10.10;99.70;;;;;;5029835;28;20276;-67
2022/04/13 02:58:51;;;;;;;6.22;4.75;;;10.20;99.70;;;;;;5024875;28;20199;-66
2022/04/13 03:01:19;;;;;;;4.72;4.07;;;10.20;99.80;;;;;;5026125;28;20441;-67
2022/04/13 03:03:47;;;;;;;9.70;4.93;;;10.20;99.70;;;;;;5019322;28;20613;-67
2022/04/13 03:06:16;;;;;;;5.28;4.53;;;10.30;99.60;;;;;;5019826;28;20226;-67
2022/04/13 03:08:45;;;;;;;8.35;4.70;;;10.40;99.60;;;;;;5019011;28;20310;-67
2022/04/13 03:11:13;;;;;;;4.72;4.05;;;10.50;99.60;;;;;;5019251;28;20250;-67
2022/04/13 03:13:40;;;;;;;9.07;4.90;;;10.50;99.50;;;;;;5019042;28;20202;-67
2022/04/13 03:16:08;;;;;;;4.63;4.25;;;10.50;99.50;;;;;;5018719;28;21052;-67
2022/04/13 03:18:36;;;;;;;4.07;3.75;;;10.60;99.50;;;;;;5017915;28;20211;-67
2022/04/13 03:21:04;;;;;;;4.60;4.20;;;10.60;99.50;;;;;;5020330;28;20226;-67
2022/04/13 03:23:33;;;;;;;4.35;3.95;;;10.60;99.50;;;;;;5022920;28;20206;-67
2022/04/13 03:26:01;;;;;;;8.40;5.40;;;10.60;99.50;;;;;;5023792;28;20666;-67
2022/04/13 03:28:29;;;;;;;5.93;5.43;;;10.60;99.50;;;;;;5030643;28;20775;-67
2022/04/13 03:30:57;;;;;;;5.75;4.60;;;10.70;99.50;;;;;;5041813;28;20280;-67
2022/04/13 03:33:25;;;;;;;6.55;5.28;;;10.60;99.50;;;;;;5042049;28;20198;-67
2022/04/13 03:35:52;;;;;;;6.80;4.80;;;10.60;99.50;;;;;;5041903;28;20277;-67
2022/04/13 03:38:20;;;;;;;5.85;4.85;;;10.50;99.60;;;;;;5041530;28;20609;-67
2022/04/13 03:40:49;;;;;;;6.75;5.00;;;10.40;99.60;;;;;;5041796;28;20511;-65
2022/04/13 03:43:17;;;;;;;13.68;5.80;;;10.40;99.70;;;;;;5042085;28;20595;-67
2022/04/13 03:45:45;;;;;;;5.57;4.60;;;10.30;99.80;;;;;;5041741;28;20204;-66
2022/04/13 03:48:13;;;;;;;5.90;4.82;;;10.30;99.80;;;;;;5041477;28;20206;-69
2022/04/13 03:50:40;;;;;;;7.57;5.40;;;10.30;99.90;;;;;;5041450;28;20279;-68
2022/04/13 03:53:08;;;;;;;6.07;5.20;;;10.40;99.90;;;;;;5040798;28;20437;-69
2022/04/13 03:55:39;;;;;;;6.03;5.10;;;10.30;99.90;;;;;;5041152;28;20263;-69
2022/04/13 03:58:09;;;;;;;5.38;4.70;;;10.30;99.90;;;;;;5041229;28;20201;-70
2022/04/13 04:00:36;;;;;;;5.90;5.20;;;10.20;99.90;;;;;;5041305;28;20214;-69
2022/04/13 04:03:04;;;;;;;6.80;5.45;;;10.20;99.90;;;;;;5042187;28;20239;-67
2022/04/13 04:05:32;;;;;;;6.43;5.43;;;10.30;99.90;;;;;;5043301;28;20212;-71
2022/04/13 04:08:01;;;;;;;5.63;5.05;;;10.30;99.90;;;;;;5041470;28;20201;-66
2022/04/13 04:10:29;;;;;;;4.85;4.35;;;10.20;99.90;;;;;;5041103;28;20303;-66
2022/04/13 04:13:01;;;;;;;5.95;4.85;;;10.20;99.90;;;;;;5041899;28;20447;-68
2022/04/13 04:15:31;;;;;;;5.70;5.10;;;10.30;99.90;;;;;;5041663;28;20202;-68
2022/04/13 04:17:59;;;;;;;9.32;5.55;;;10.30;99.90;;;;;;5049991;28;20201;-67
2022/04/13 04:20:27;;;;;;;6.65;5.07;;;10.40;99.90;;;;;;5053180;28;20285;-67
2022/04/13 04:22:55;;;;;;;5.30;4.80;;;10.30;99.90;;;;;;5042633;28;20211;-68
2022/04/13 04:25:23;;;;;;;5.65;5.13;;;10.40;99.90;;;;;;5041022;28;20213;-67
2022/04/13 04:27:51;;;;;;;6.68;4.65;;;10.40;99.90;;;;;;5040434;28;20715;-67
2022/04/13 04:30:19;;;;;;;6.07;5.45;;;10.30;99.90;;;;;;5040512;28;20216;-67
2022/04/13 04:32:48;;;;;;;6.10;4.80;;;10.30;99.90;;;;;;5039438;28;20315;-68
2022/04/13 04:35:16;;;;;;;7.60;4.72;;;10.20;99.90;;;;;;5040551;28;20347;-68
2022/04/13 04:37:44;;;;;;;6.88;5.60;;;10.20;99.90;;;;;;5040253;28;20265;-67
2022/04/13 04:40:12;;;;;;;7.88;4.72;;;10.10;99.90;;;;;;5039758;28;20197;-68
2022/04/13 04:42:47;;;;;;;7.40;5.60;;;10.10;99.90;;;;;;5040158;28;20206;-68
2022/04/13 04:45:19;;;;;;;6.68;4.90;;;10.10;99.90;;;;;;5040319;28;20580;-67
2022/04/13 04:47:49;;;;;;;6.90;4.90;;;10.00;99.90;;;;;;5039907;28;20817;-67
2022/04/13 04:50:17;;;;;;;6.55;4.85;;;10.00;99.90;;;;;;5039619;28;20287;-68
2022/04/13 04:52:47;;;;;;;5.93;5.35;;;10.00;99.90;;;;;;5040070;28;20444;-68
2022/04/13 04:55:17;;;;;;;6.68;5.88;;;10.00;99.90;;;;;;5040252;28;20356;-67
2022/04/13 04:57:45;;;;;;;5.75;5.10;;;10.00;99.90;;;;;;5040358;28;20198;-68
2022/04/13 05:00:17;;;;;;;6.57;5.97;;;10.10;99.90;;;;;;5039964;28;20201;-68
2022/04/13 05:02:48;;;;;;;6.78;5.80;;;10.10;99.90;;;;;;5039393;28;20206;-68
2022/04/13 05:05:17;;;;;;;6.22;5.20;;;10.10;99.90;;;;;;5039687;28;20782;-69
2022/04/13 05:07:46;;;;;;;6.15;5.55;;;10.10;99.90;;;;;;5039220;28;20695;-68
2022/04/13 05:10:14;;;;;;;5.85;5.32;;;10.10;99.90;;;;;;5039682;28;20222;-68
2022/04/13 05:12:44;;;;;;;8.65;5.88;;;10.10;99.90;;;;;;5040504;28;20454;-68
2022/04/13 05:15:13;;;;;;;7.32;5.55;;;10.10;99.90;;;;;;5039888;28;20230;-66
2022/04/13 05:17:41;;;;;;;7.37;5.30;;;10.10;99.90;;;;;;5039210;28;20427;-69
2022/04/13 05:20:12;;;;;;;10.17;5.67;;;10.20;99.90;;;;;;5039870;28;20483;-73
2022/04/13 05:22:40;;;;;;;7.60;6.57;;;10.20;99.90;;;;;;5040113;28;20555;-70
2022/04/13 05:25:09;;;;;;;7.22;5.97;;;10.10;99.90;;;;;;5040502;28;20463;-72
2022/04/13 05:27:37;;;;;;;8.85;6.03;;;10.10;99.90;;;;;;5039993;28;20197;-70
2022/04/13 05:30:07;;;;;;;8.02;5.35;;;10.10;99.90;;;;;;5039525;28;20317;-70
2022/04/13 05:32:46;;;;;;;11.15;5.65;;;10.20;99.90;;;;;;5039851;28;20206;-70
2022/04/13 05:35:16;;;;;;;7.97;6.55;;;10.30;99.90;;;;;;5039335;28;20483;-70
2022/04/13 05:37:45;;;;;;;7.72;6.93;;;10.30;99.90;;;;;;5040537;28;20216;-68
2022/04/13 05:40:13;;;;;;;7.60;5.95;;;10.30;99.90;;;;;;5043453;28;20197;-70
2022/04/13 05:42:41;;;;;;;8.37;6.53;;;10.40;99.90;;;;;;5039806;28;20210;-70
2022/04/13 05:45:10;;;;;;;7.57;6.18;;;10.50;99.90;;;;;;5039514;28;20463;-69
2022/04/13 05:47:39;;;;;;;8.40;6.38;;;10.60;99.90;;;;;;5040421;28;20339;-70
2022/04/13 05:50:10;;;;;;;8.35;6.70;;;10.70;99.90;;;;;;5040382;28;20225;-70
2022/04/13 05:52:41;;;;;;;8.50;7.03;;;10.70;99.90;;;;;;5039539;28;20202;-69
2022/04/13 05:55:09;;;;;;;7.50;6.63;;;10.70;99.90;;;;;;5040120;28;20201;-68
2022/04/13 05:57:37;;;;;;;9.00;6.65;;;10.80;99.90;;;;;;5039663;28;20940;-68
2022/04/13 06:00:07;;;;;;;9.68;7.07;;;10.80;99.90;;;;;;5040741;28;20357;-70
2022/04/13 06:02:36;;;;;;;10.35;6.80;;;10.80;99.90;;;;;;5040223;28;20712;-70
2022/04/13 06:05:05;;;;;;;9.77;8.30;;;10.80;99.90;;;;;;5040026;28;20530;-70
2022/04/13 06:07:33;;;;;;;6.93;6.20;;;10.90;99.90;;;;;;5039770;28;20220;-70
2022/04/13 06:10:04;;;;;;;7.77;6.80;;;11.00;99.90;;;;;;5039431;28;20475;-68
2022/04/13 06:12:32;;;;;;;8.70;7.23;;;11.00;99.90;;;;;;5039993;28;20842;-68
2022/04/13 06:15:04;;;;;;;8.50;6.67;;;11.10;99.90;;;;;;5039885;28;20755;-70
2022/04/13 06:17:33;;;;;;;9.40;6.70;;;11.10;99.90;;;;;;5039053;28;20811;-70
2022/04/13 06:20:09;;;;;;;7.93;6.50;;;11.20;99.90;;;;;;5040954;28;20701;-68
2022/04/13 06:22:41;;;;;;;9.40;7.03;;;11.20;99.90;;;;;;5039148;28;20440;-68
2022/04/13 06:25:12;;;;;;;11.77;8.60;;;11.30;99.90;;;;;;5039066;28;20452;-70
2022/04/13 06:27:40;;;;;;;9.93;7.13;;;11.40;99.90;;;;;;5039869;28;20452;-70
2022/04/13 06:30:10;;;;;;;10.97;7.83;;;11.50;99.90;;;;;;5039433;28;20450;-70
2022/04/13 06:32:39;;;;;;;11.50;7.73;;;11.60;99.90;;;;;;5038918;28;20612;-70
2022/04/13 06:35:09;;;;;;;9.50;7.10;;;11.60;99.90;;;;;;5035890;28;20457;-69
2022/04/13 06:37:39;;;;;;;12.07;7.40;;;11.70;99.90;;;;;;5030206;28;20959;-70
2022/04/13 06:40:08;;;;;;;11.30;7.53;;;11.80;99.90;;;;;;5033402;28;20479;-70
2022/04/13 06:42:39;;;;;;;9.70;7.23;;;11.90;99.90;;;;;;5030659;28;20453;-69
2022/04/13 06:45:09;;;;;;;8.27;7.50;;;12.00;99.90;;;;;;5024831;28;20566;-72
2022/04/13 06:47:37;;;;;;;10.07;8.07;;;12.10;99.90;;;;;;5022711;28;20479;-70
2022/04/13 06:50:06;;;;;;;10.43;8.10;;;12.20;99.90;;;;;;5025245;28;20506;-69
2022/04/13 06:52:35;;;;;;;9.60;7.77;;;12.40;99.90;;;;;;5031501;28;20507;-73
2022/04/13 06:55:04;;;;;;;10.53;8.27;;;12.50;99.90;;;;;;5020124;28;20457;-69
2022/04/13 06:57:37;;;;;;;8.13;7.07;;;12.60;99.90;;;;;;5026274;28;20753;-71
2022/04/13 07:00:11;;;;;;;10.47;6.97;;;12.60;99.90;;;;;;5038020;28;20448;-73
2022/04/13 07:02:40;;;;;;;7.73;6.93;;;12.70;99.70;;;;;;5031274;28;20449;-72
2022/04/13 07:05:29;;;;;;;8.40;7.40;;;12.80;99.80;;;;;;5038547;28;20451;-73
2022/04/13 07:07:58;;;;;;;9.60;7.40;;;13.00;99.80;;;;;;5031826;28;20506;-70
2022/04/13 07:10:27;;;;;;;9.90;7.83;;;13.00;99.60;;;;;;5031836;28;20498;-67
2022/04/13 07:12:56;;;;;;;8.37;7.53;;;13.10;99.60;;;;;;5035068;28;20531;-68
2022/04/13 07:15:27;;;;;;;8.87;7.97;;;13.20;99.90;;;;;;5040287;28;21099;-67
2022/04/13 07:17:56;;;;;;;8.53;7.57;;;13.10;99.60;;;;;;5031766;28;20475;-67
2022/04/13 07:20:24;;;;;;;8.63;7.00;;;13.20;99.70;;;;;;5025411;28;20472;-68
2022/04/13 07:22:53;;;;;;;10.03;7.33;;;13.30;99.50;;;;;;5033642;28;20583;-68
2022/04/13 07:25:22;;;;;;;9.20;7.37;;;13.20;99.60;;;;;;5034552;28;20436;-68
2022/04/13 07:27:51;;;;;;;12.00;7.97;;;13.20;99.60;;;;;;5037388;28;20444;-68
2022/04/13 07:30:19;;;;;;;11.03;8.43;;;13.10;99.70;;;;;;5034291;28;20483;-68
2022/04/13 07:32:52;;;;;;;12.73;8.93;;;13.10;99.70;;;;;;5039171;28;20469;-68
2022/04/13 07:35:20;;;;;;;14.23;8.43;;;13.10;99.70;;;;;;5031699;28;20444;-68
2022/04/13 07:37:48;;;;;;;9.60;7.17;;;13.10;99.80;;;;;;5027901;28;20452;-67
2022/04/13 07:40:17;;;;;;;8.50;7.60;;;13.30;99.90;;;;;;5032428;28;20456;-67
2022/04/13 07:42:45;;;;;;;10.90;7.87;;;13.30;99.80;;;;;;5033275;28;21233;-67
2022/04/13 07:45:16;;;;;;;10.77;8.57;;;13.40;99.80;;;;;;5035873;28;20448;-66
2022/04/13 07:47:44;;;;;;;12.07;7.90;;;13.30;99.80;;;;;;5040209;28;21188;-66
2022/04/13 07:50:14;;;;;;;8.77;7.87;;;13.30;99.80;;;;;;5041785;28;20456;-66
2022/04/13 07:52:43;;;;;;;11.37;7.93;;;13.30;99.90;;;;;;5040309;28;21104;-67
2022/04/13 07:55:11;;;;;;;9.53;7.53;;;13.30;99.90;;;;;;5036878;28;20445;-65
2022/04/13 07:57:40;;;;;;;10.60;8.17;;;13.40;99.90;;;;;;5036309;28;20494;-67
2022/04/13 08:00:11;;;;;;;12.50;8.40;;;13.60;99.90;;;;;;5042117;28;21118;-67
2022/04/13 08:02:41;;;;;;;11.63;8.47;;;13.60;99.90;;;;;;5041813;28;20445;-67
2022/04/13 08:05:14;;;;;;;11.53;8.27;;;13.60;99.90;;;;;;5043136;28;20447;-67
2022/04/13 08:07:43;;;;;;;9.77;7.53;;;13.70;99.90;;;;;;5042650;28;20429;-68
2022/04/13 08:10:11;;;;;;;8.20;7.20;;;13.80;99.90;;;;;;5034180;28;20920;-68
2022/04/13 08:12:40;;;;;;;11.27;7.60;;;13.80;99.90;;;;;;5036263;28;20480;-68
2022/04/13 08:15:12;;;;;;;10.37;6.50;;;13.80;99.80;;;;;;5036534;28;20440;-68
2022/04/13 08:17:40;;;;;;;14.23;9.07;;;13.80;99.90;;;;;;5037679;28;20451;-69
2022/04/13 08:20:11;;;;;;;8.80;8.00;;;13.90;99.90;;;;;;5043441;28;20467;-69
2022/04/13 08:22:42;;;;;;;11.00;8.30;;;14.00;99.90;;;;;;5042368;28;20535;-72
2022/04/13 08:25:14;;;;;;;9.37;7.57;;;14.10;99.90;;;;;;5035886;28;20858;-74
2022/04/13 08:28:01;;;;;;;10.93;7.77;;;14.30;99.90;;;;;;5029525;28;20456;-68
2022/04/13 08:30:29;;;;;;;29.30;10.43;;;14.50;99.90;;;;;;5042143;28;20491;-70
2022/04/13 08:32:57;;;;;;;9.43;7.77;;;14.70;99.80;;;;;;5035135;28;20640;-66
2022/04/13 08:35:26;;;;;;;12.07;8.60;;;14.80;99.90;;;;;;5037238;28;20487;-67
2022/04/13 08:37:57;;;;;;;8.63;7.70;;;15.10;99.90;;;;;;5038247;28;20544;-71
2022/04/13 08:40:25;;;;;;;11.43;7.97;;;15.20;99.60;;;;;;5041521;28;20537;-67
2022/04/13 08:43:03;;;;;;;9.40;7.63;;;15.50;99.70;;;;;;5042185;28;20942;-67
2022/04/13 08:45:36;;;;;;;9.40;7.90;;;15.70;99.60;;;;;;5028726;28;20453;-73
2022/04/13 08:48:08;;;;;;;12.20;8.03;;;15.80;99.30;;;;;;5026228;28;20481;-69
2022/04/13 08:50:38;;;;;;;12.20;8.00;;;15.80;99.30;;;;;;5021207;28;20468;-68
2022/04/13 08:53:12;;;;;;;9.90;7.37;;;15.90;99.90;;;;;;5032399;28;20702;-68
2022/04/13 08:55:47;;;;;;;8.10;7.00;;;15.80;99.90;;;;;;5026731;28;20779;-68
2022/04/13 08:58:25;;;;;;;10.37;7.70;;;15.90;99.90;;;;;;5035662;28;20770;-68
2022/04/13 09:00:57;;;;;;;12.17;8.70;;;15.90;99.90;;;;;;5036902;28;20460;-67
2022/04/13 09:03:37;;;;;;;9.90;8.80;;;15.90;99.90;;;;;;5028614;28;21021;-68
2022/04/13 09:06:09;;;;;;;8.50;7.60;;;16.00;99.90;;;;;;5030521;28;20923;-71
2022/04/13 09:08:43;;;;;;;8.90;7.60;;;16.00;99.90;;;;;;5029199;28;20457;-71
2022/04/13 09:11:14;;;;;;;8.47;7.53;;;16.10;99.90;;;;;;5034146;28;20537;-71
2022/04/13 09:13:45;;;;;;;10.13;8.60;;;16.10;99.90;;;;;;5023784;28;20621;-71
2022/04/13 09:16:15;;;;;;;9.43;8.30;;;16.20;99.90;;;;;;5027597;28;20440;-70
2022/04/13 09:18:43;;;;;;;14.43;8.93;;;16.30;99.90;;;;;;5027843;28;21053;-69
2022/04/13 09:21:13;;;;;;;10.30;7.83;;;16.30;99.90;;;;;;5027049;28;20564;-70
2022/04/13 09:23:42;;;;;;;9.67;7.63;;;16.40;99.90;;;;;;5026755;28;20452;-72
2022/04/13 09:26:11;;;;;;;11.93;8.37;;;16.50;99.90;;;;;;5038277;28;20960;-71
2022/04/13 09:28:39;;;;;;;9.23;8.20;;;16.40;99.90;;;;;;5022268;28;20577;-72
2022/04/13 09:31:07;;;;;;;9.83;8.60;;;16.60;99.90;;;;;;5035101;28;20978;-72
2022/04/13 09:33:35;;;;;;;12.90;8.67;;;16.80;99.90;;;;;;5036579;28;20485;-71
2022/04/13 09:36:06;;;;;;;10.67;8.10;;;17.00;99.90;;;;;;5040369;28;20459;-70
2022/04/13 09:38:35;;;;;;;9.47;7.77;;;17.10;99.90;;;;;;5038631;28;20529;-71
2022/04/13 09:41:09;;;;;;;9.47;7.40;;;17.20;99.90;;;;;;5027749;28;20542;-70
2022/04/13 09:43:38;;;;;;;9.50;7.97;;;17.30;99.90;;;;;;5032214;28;20940;-69
2022/04/13 09:46:08;;;;;;;8.90;7.70;;;17.30;99.90;;;;;;5026496;28;20486;-70
2022/04/13 09:48:41;;;;;;;13.30;9.50;;;17.40;99.90;;;;;;5021190;28;21070;-72
2022/04/13 09:51:10;;;;;;;10.03;8.73;;;17.50;99.90;;;;;;5021665;28;20568;-73
2022/04/13 09:53:42;;;;;;;12.03;8.07;;;17.60;99.90;;;;;;5030177;28;20504;-72
2022/04/13 09:56:17;;;;;;;8.73;7.13;;;17.70;99.90;;;;;;5036713;28;20462;-72
2022/04/13 09:58:45;;;;;;;10.93;9.57;;;17.80;99.90;;;;;;5020405;28;20435;-71
2022/04/13 10:01:13;;;;;;;11.50;8.77;;;17.80;99.90;;;;;;5021835;28;20470;-72
2022/04/13 10:03:53;;;;;;;9.67;8.40;;;18.00;99.90;;;;;;5021239;28;22387;-72
2022/04/13 10:06:27;;;;;;;20.13;8.70;;;18.10;99.90;;;;;;5025972;28;21159;-72
2022/04/13 10:09:00;;;;;;;10.77;9.03;;;18.30;99.90;;;;;;5024565;28;20981;-72
2022/04/13 10:11:29;;;;;;;10.20;6.90;;;18.50;99.90;;;;;;5035957;28;20479;-71
2022/04/13 10:14:01;;;;;;;13.03;8.97;;;18.80;99.90;;;;;;5030920;28;21150;-72
2022/04/13 10:16:32;;;;;;;10.80;9.20;;;18.90;99.90;;;;;;5034243;28;20467;-71
2022/04/13 10:19:02;;;;;;;12.93;10.20;;;18.90;99.90;;;;;;5039595;28;20448;-71
2022/04/13 10:21:35;;;;;;;13.20;9.77;;;18.90;99.90;;;;;;5038797;28;20482;-72
2022/04/13 10:24:06;;;;;;;12.80;9.77;;;19.10;99.60;;;;;;5034685;28;20449;-72
2022/04/13 10:26:35;;;;;;;12.10;9.57;;;19.30;99.70;;;;;;5038185;28;20470;-72
2022/04/13 10:29:15;;;;;;;11.33;9.60;;;19.30;99.70;;;;;;5038042;28;20420;-72
2022/04/13 10:32:02;;;;;;;11.00;9.70;;;19.30;99.70;;;;;;5023831;28;20475;-71
2022/04/13 10:34:31;;;;;;;12.70;9.50;;;19.30;99.90;;;;;;5037921;28;20448;-71
2022/04/13 10:36:59;;;;;;;13.80;10.37;;;19.40;99.90;;;;;;5038734;28;20436;-71
2022/04/13 10:39:28;;;;;;;16.40;11.03;;;19.40;99.80;;;;;;5035902;28;20826;-71
2022/04/13 10:41:57;;;;;;;13.10;10.20;;;19.50;99.40;;;;;;5025458;28;20507;-71
2022/04/13 10:44:33;;;;;;;19.40;11.50;;;19.50;99.20;;;;;;5031774;28;20788;-71
2022/04/13 10:47:04;;;;;;;11.93;10.63;;;19.60;99.40;;;;;;5022046;28;20444;-71
2022/04/13 10:49:40;;;;;;;14.77;11.10;;;19.60;99.70;;;;;;5036261;28;20958;-71
2022/04/13 10:52:14;;;;;;;15.47;11.37;;;19.70;99.90;;;;;;5038626;28;20459;-71
2022/04/13 10:54:50;;;;;;;14.17;11.87;;;19.60;99.50;;;;;;5023816;28;20450;-71
2022/04/13 10:57:22;;;;;;;10.83;9.57;;;19.60;99.30;;;;;;5030995;28;20454;-71
2022/04/13 10:59:53;;;;;;;15.73;11.43;;;19.60;99.90;;;;;;5038410;28;20660;-73
2022/04/13 11:02:29;;;;;;;17.73;12.00;;;19.60;99.90;;;;;;5029970;28;20497;-71
2022/04/13 11:04:58;;;;;;;14.73;9.37;;;19.60;99.60;;;;;;5023064;28;20614;-71
2022/04/13 11:07:27;;;;;;;21.63;13.30;;;19.60;99.80;;;;;;5018961;28;20449;-76
2022/04/13 11:10:03;;;;;;;17.53;11.80;;;19.60;99.80;;;;;;5019956;28;20929;-73
2022/04/13 11:12:33;;;;;;;20.50;11.13;;;19.60;99.60;;;;;;5026656;28;20457;-73
2022/04/13 11:15:02;;;;;;;19.40;12.10;;;19.50;99.80;;;;;;5020537;28;20539;-72
2022/04/13 11:17:31;;;;;;;15.20;11.23;;;19.60;99.70;;;;;;5019548;28;20445;-71
2022/04/13 11:20:19;;;;;;;17.03;12.40;;;19.60;99.80;;;;;;5040313;28;20507;-72
2022/04/13 11:23:10;;;;;;;17.37;10.90;;;19.60;99.90;;;;;;5047184;28;20466;-71
2022/04/13 11:25:50;;;;;;;15.87;10.83;;;19.50;99.90;;;;;;5038596;28;20470;-71
2022/04/13 11:28:26;;;;;;;18.60;12.60;;;19.50;99.90;;;;;;5018868;28;20441;-72
2022/04/13 11:31:05;;;;;;;12.77;9.03;;;19.50;99.90;;;;;;5024004;28;20470;-72
2022/04/13 11:33:49;;;;;;;13.73;10.07;;;19.70;99.90;;;;;;5037826;28;20564;-72
2022/04/13 11:36:18;;;;;;;18.00;10.97;;;19.90;99.90;;;;;;5025169;28;20449;-72
2022/04/13 11:39:06;;;;;;;20.07;12.50;;;20.00;99.90;;;;;;5018703;28;20842;-72
2022/04/13 11:41:33;;;;;;;20.50;13.50;;;20.10;99.90;;;;;;5018521;28;20466;-72
2022/04/13 11:47:13;;;;;;;20.63;13.03;;;20.20;99.90;;;;;;5053250;28;20875;-72
2022/04/13 11:49:55;;;;;;;22.13;12.60;;;20.40;99.90;;;;;;5054005;28;20439;-73
2022/04/13 11:52:42;;;;;;;22.37;13.27;;;20.40;99.90;;;;;;5053150;27;20939;-73
2022/04/13 11:55:20;;;;;;;22.40;14.03;;;20.50;99.90;;;;;;5052646;28;20444;-72
2022/04/13 11:57:53;;;;;;;25.03;16.10;;;20.60;99.90;;;;;;5037028;27;20460;-73
2022/04/13 12:00:37;;;;;;;20.30;13.77;;;20.60;99.90;;;;;;5033566;28;20437;-71
2022/04/13 12:03:09;;;;;;;23.37;14.57;;;20.50;99.90;;;;;;5034035;28;20923;-71
2022/04/13 12:05:39;;;;;;;24.73;15.47;;;20.50;99.90;;;;;;5040313;28;20535;-70
2022/04/13 12:08:11;;;;;;;18.33;12.33;;;20.60;99.90;;;;;;5055007;27;20908;-71
2022/04/13 12:10:39;;;;;;;18.83;11.53;;;20.60;99.90;;;;;;5055578;28;20487;-72
2022/04/13 12:13:12;;;;;;;20.47;12.10;;;20.80;99.90;;;;;;5043380;28;20866;-71
2022/04/13 12:15:51;;;;;;;17.20;10.83;;;20.80;99.90;;;;;;5032578;27;20647;-71
2022/04/13 12:18:22;;;;;;;25.93;12.43;;;20.90;99.90;;;;;;5032441;28;20532;-69
2022/04/13 12:20:50;;;;;;;18.37;11.90;;;21.00;99.90;;;;;;5034744;28;20847;-74
2022/04/13 12:23:21;;;;;;;19.30;11.60;;;21.10;99.90;;;;;;5034243;28;20433;-76
2022/04/13 12:25:52;;;;;;;28.20;13.10;;;21.10;99.90;;;;;;5034713;27;21026;-75
2022/04/13 12:28:22;;;;;;;20.90;12.50;;;21.10;99.90;;;;;;5034180;28;20458;-74
2022/04/13 12:30:58;;;;;;;27.10;14.40;;;21.20;99.90;;;;;;5035621;28;20743;-73
2022/04/13 12:33:29;;;;;;;22.13;13.50;;;21.20;99.90;;;;;;5033038;28;20516;-72
2022/04/13 12:35:59;;;;;;;20.13;12.67;;;21.20;99.90;;;;;;5032357;28;20429;-73
2022/04/13 12:38:29;;;;;;;21.60;11.93;;;21.30;99.90;;;;;;5032633;28;20775;-73
2022/04/13 12:41:19;;;;;;;23.73;12.23;;;21.30;99.90;;;;;;5032660;28;20630;-71
2022/04/13 12:43:52;;;;;;;20.73;12.33;;;21.40;99.90;;;;;;5036003;28;20538;-72
2022/04/13 12:46:21;;;;;;;18.20;11.23;;;21.40;99.90;;;;;;5064930;28;20578;-71
2022/04/13 12:48:52;;;;;;;22.73;13.20;;;21.60;99.90;;;;;;5044024;28;20460;-73
2022/04/13 12:51:20;;;;;;;22.87;13.73;;;21.70;99.90;;;;;;5042219;28;20626;-72
2022/04/13 12:53:54;;;;;;;23.73;14.03;;;21.70;99.90;;;;;;5045895;28;20470;-72
2022/04/13 12:56:25;;;;;;;20.97;13.47;;;21.80;99.90;;;;;;5037028;28;20444;-74
2022/04/13 12:58:54;;;;;;;19.20;12.80;;;21.70;99.90;;;;;;5029537;28;20449;-72